Time;durP1;ratioP1;P1;durP2;ratioP2;P2;SDS_P1;SDS_P2;PMS_P1;PMS_P2;Temp;Humidity;BMP_temperature;BMP_pressure;BME280_temperature;BME280_humidity;BME280_pressure;Samples;Min_cycle;Max_cycle;Signal;HPM_P1;HPM_P2
2023/07/02 00:00:05;;;;;;;4.00;1.90;;;18.20;99.90;;;;;;5091558;28;20220;-60
2023/07/02 00:02:33;;;;;;;3.95;2.42;;;18.20;99.90;;;;;;5091928;28;20718;-59
2023/07/02 00:05:01;;;;;;;2.30;1.98;;;18.20;99.90;;;;;;5086104;28;20212;-60
2023/07/02 00:07:31;;;;;;;4.97;1.63;;;18.20;99.90;;;;;;5091115;28;20250;-58
2023/07/02 00:09:58;;;;;;;3.83;1.85;;;18.10;99.90;;;;;;5092053;28;20204;-60
2023/07/02 00:12:26;;;;;;;1.98;1.70;;;18.10;99.90;;;;;;5091374;28;20227;-60
2023/07/02 00:14:54;;;;;;;2.63;1.60;;;18.10;99.90;;;;;;5091162;28;20745;-60
2023/07/02 00:17:22;;;;;;;4.35;1.83;;;18.10;99.90;;;;;;5091765;28;20751;-61
2023/07/02 00:19:51;;;;;;;1.85;1.75;;;18.10;99.90;;;;;;5092224;28;20208;-60
2023/07/02 00:22:20;;;;;;;5.90;1.77;;;18.10;99.90;;;;;;5090426;28;20236;-60
2023/07/02 00:24:51;;;;;;;2.47;1.60;;;18.00;99.90;;;;;;5091321;28;20747;-59
2023/07/02 00:27:18;;;;;;;2.88;1.55;;;18.00;99.90;;;;;;5091423;28;20200;-60
2023/07/02 00:29:46;;;;;;;1.48;1.38;;;18.00;99.90;;;;;;5091746;28;20196;-61
2023/07/02 00:32:14;;;;;;;2.50;1.40;;;17.90;99.90;;;;;;5091697;28;20231;-58
2023/07/02 00:34:42;;;;;;;4.60;1.58;;;17.90;99.90;;;;;;5090868;28;20216;-58
2023/07/02 00:37:10;;;;;;;1.27;1.27;;;17.90;99.90;;;;;;5090806;28;20232;-59
2023/07/02 00:39:38;;;;;;;4.43;1.70;;;17.80;99.90;;;;;;5090775;28;20282;-59
2023/07/02 00:42:08;;;;;;;4.95;1.80;;;17.70;99.90;;;;;;5093999;28;20273;-60
2023/07/02 00:44:40;;;;;;;4.22;1.83;;;17.70;99.90;;;;;;5090389;28;20210;-64
2023/07/02 00:47:08;;;;;;;4.45;1.63;;;17.70;99.90;;;;;;5091422;28;20196;-59
2023/07/02 00:49:36;;;;;;;3.47;1.35;;;17.60;99.90;;;;;;5074956;28;20204;-60
2023/07/02 00:52:05;;;;;;;1.52;1.40;;;17.50;99.90;;;;;;5091619;28;20313;-59
2023/07/02 00:54:33;;;;;;;8.00;1.40;;;17.50;99.90;;;;;;5091055;28;20235;-59
2023/07/02 00:57:02;;;;;;;1.60;1.50;;;17.40;99.90;;;;;;5090818;28;20207;-59
2023/07/02 00:59:34;;;;;;;2.55;1.33;;;17.30;99.90;;;;;;5090729;28;20216;-62
2023/07/02 01:02:01;;;;;;;2.83;1.85;;;17.30;99.90;;;;;;5083118;28;20727;-61
2023/07/02 01:04:29;;;;;;;1.40;1.35;;;17.20;99.90;;;;;;5095220;28;20633;-62
2023/07/02 01:06:58;;;;;;;3.10;1.70;;;17.20;99.90;;;;;;5095167;28;20243;-58
2023/07/02 01:09:26;;;;;;;1.58;1.50;;;17.10;99.90;;;;;;5094911;28;20242;-61
2023/07/02 01:11:55;;;;;;;2.20;1.45;;;17.10;99.90;;;;;;5094958;28;20223;-60
2023/07/02 01:14:29;;;;;;;3.20;1.48;;;17.00;99.90;;;;;;5094735;28;20572;-59
2023/07/02 01:16:58;;;;;;;1.20;1.02;;;17.00;99.90;;;;;;5093395;28;20266;-60
2023/07/02 01:19:40;;;;;;;2.13;1.40;;;16.90;99.90;;;;;;5095149;28;20200;-60
2023/07/02 01:22:08;;;;;;;1.67;1.30;;;16.80;99.90;;;;;;5090253;22;20260;-61
2023/07/02 01:24:36;;;;;;;3.15;1.27;;;16.80;99.90;;;;;;5054249;28;20198;-61
2023/07/02 01:27:05;;;;;;;4.07;1.40;;;16.70;99.90;;;;;;5054620;28;20328;-61
2023/07/02 01:29:36;;;;;;;3.58;1.33;;;16.70;99.90;;;;;;5054581;28;20360;-60
2023/07/02 01:32:05;;;;;;;6.05;1.70;;;16.60;99.90;;;;;;5053220;28;20232;-61
2023/07/02 01:34:34;;;;;;;1.63;1.50;;;16.50;99.90;;;;;;5053905;28;20201;-61
2023/07/02 01:37:02;;;;;;;2.53;1.45;;;16.50;99.90;;;;;;5054524;28;20253;-60
2023/07/02 01:39:30;;;;;;;3.17;1.38;;;16.50;99.90;;;;;;5054164;28;20241;-61
2023/07/02 01:42:08;;;;;;;1.38;1.02;;;16.40;99.90;;;;;;5054672;28;20221;-61
2023/07/02 01:44:36;;;;;;;2.28;1.40;;;16.40;99.90;;;;;;5053864;28;20206;-62
2023/07/02 01:47:04;;;;;;;1.88;1.30;;;16.40;99.90;;;;;;5053382;28;20201;-60
2023/07/02 01:49:33;;;;;;;4.28;1.90;;;16.40;99.90;;;;;;5054095;28;20616;-61
2023/07/02 01:52:01;;;;;;;3.92;1.35;;;16.30;99.90;;;;;;5053923;28;20271;-61
2023/07/02 01:54:29;;;;;;;3.10;1.15;;;16.30;99.90;;;;;;5054006;28;20202;-61
2023/07/02 01:56:57;;;;;;;3.78;1.42;;;16.20;99.90;;;;;;5053769;28;20735;-61
2023/07/02 01:59:25;;;;;;;3.35;1.52;;;16.20;99.90;;;;;;5052926;28;20240;-62
2023/07/02 02:01:53;;;;;;;1.52;1.30;;;16.10;99.90;;;;;;5053573;28;20521;-61
2023/07/02 02:04:21;;;;;;;3.55;1.40;;;16.10;99.90;;;;;;5053721;28;20233;-61
2023/07/02 02:06:51;;;;;;;1.35;1.25;;;16.10;99.90;;;;;;5053770;28;20205;-61
2023/07/02 02:09:20;;;;;;;4.03;1.27;;;16.10;99.90;;;;;;5053686;28;20677;-61
2023/07/02 02:11:49;;;;;;;3.45;1.08;;;16.00;99.90;;;;;;5053499;28;20246;-62
2023/07/02 02:14:17;;;;;;;1.60;1.50;;;16.00;99.90;;;;;;5051777;28;20293;-61
2023/07/02 02:16:46;;;;;;;1.95;1.30;;;16.00;99.90;;;;;;5053098;28;20271;-61
2023/07/02 02:19:14;;;;;;;4.28;1.75;;;16.00;99.90;;;;;;5053604;28;20213;-60
2023/07/02 02:21:42;;;;;;;1.48;1.42;;;15.90;99.90;;;;;;5053414;28;20634;-61
2023/07/02 02:24:12;;;;;;;2.45;1.38;;;15.90;99.90;;;;;;5042219;28;20301;-61
2023/07/02 02:26:40;;;;;;;2.30;1.42;;;15.90;99.90;;;;;;5053329;28;20233;-62
2023/07/02 02:29:08;;;;;;;5.22;1.60;;;15.90;99.90;;;;;;5052846;28;20899;-60
2023/07/02 02:31:36;;;;;;;4.43;1.40;;;15.80;99.90;;;;;;5049614;28;20257;-61
2023/07/02 02:34:04;;;;;;;4.75;2.17;;;15.80;99.90;;;;;;5053297;28;20637;-61
2023/07/02 02:36:33;;;;;;;4.10;1.83;;;15.70;99.90;;;;;;5053322;28;20354;-61
2023/07/02 02:39:00;;;;;;;2.28;1.65;;;15.70;99.90;;;;;;5053223;28;20245;-61
2023/07/02 02:41:30;;;;;;;2.38;1.95;;;15.60;99.90;;;;;;5053039;28;20241;-61
2023/07/02 02:43:57;;;;;;;3.08;1.90;;;15.60;99.90;;;;;;5052804;28;20233;-59
2023/07/02 02:46:25;;;;;;;3.58;2.20;;;15.50;99.90;;;;;;5052992;28;20237;-61
2023/07/02 02:48:53;;;;;;;4.43;2.03;;;15.50;99.90;;;;;;5052728;28;20242;-61
2023/07/02 02:51:21;;;;;;;3.47;2.20;;;15.50;99.90;;;;;;5052665;28;20320;-61
2023/07/02 02:53:49;;;;;;;3.58;2.17;;;15.40;99.90;;;;;;5053111;28;20685;-61
2023/07/02 02:56:17;;;;;;;2.95;2.00;;;15.40;99.90;;;;;;5051784;28;20214;-61
2023/07/02 02:58:46;;;;;;;5.82;2.35;;;15.40;99.90;;;;;;5051403;28;20669;-60
2023/07/02 03:01:14;;;;;;;5.57;2.10;;;15.40;99.90;;;;;;5051413;28;20233;-61
2023/07/02 03:03:44;;;;;;;2.25;2.13;;;15.30;99.90;;;;;;5051202;28;20210;-61
2023/07/02 03:06:14;;;;;;;3.70;2.40;;;15.30;99.90;;;;;;5052462;28;20205;-60
2023/07/02 03:08:42;;;;;;;5.50;3.17;;;15.30;99.90;;;;;;5050844;28;20297;-60
2023/07/02 03:11:10;;;;;;;7.00;3.00;;;15.40;99.90;;;;;;5052185;28;20657;-61
2023/07/02 03:13:38;;;;;;;6.80;2.80;;;15.40;99.90;;;;;;5052883;28;20249;-61
2023/07/02 03:16:07;;;;;;;5.53;2.90;;;15.30;99.90;;;;;;5052419;28;20222;-61
2023/07/02 03:18:35;;;;;;;4.40;3.20;;;15.40;99.90;;;;;;5052387;28;20599;-60
2023/07/02 03:21:03;;;;;;;4.28;3.08;;;15.40;99.90;;;;;;5052431;28;20237;-61
2023/07/02 03:23:31;;;;;;;7.60;3.25;;;15.40;99.90;;;;;;5049707;28;20229;-61
2023/07/02 03:25:59;;;;;;;10.23;3.22;;;15.40;99.90;;;;;;5051956;28;20704;-60
2023/07/02 03:28:27;;;;;;;6.05;3.15;;;15.50;99.90;;;;;;5052286;28;20206;-61
2023/07/02 03:30:55;;;;;;;4.70;3.20;;;15.50;99.90;;;;;;5052237;28;20716;-60
2023/07/02 03:33:24;;;;;;;4.88;2.92;;;15.60;99.90;;;;;;5051197;28;20608;-60
2023/07/02 03:35:52;;;;;;;6.70;3.50;;;15.50;99.90;;;;;;5052208;28;20233;-60
2023/07/02 03:38:20;;;;;;;3.92;3.38;;;15.50;99.90;;;;;;5051231;28;20233;-61
2023/07/02 03:40:48;;;;;;;9.02;3.60;;;15.60;99.90;;;;;;5052246;28;20205;-60
2023/07/02 03:43:16;;;;;;;4.57;3.40;;;15.60;99.90;;;;;;5052068;28;20226;-61
2023/07/02 03:45:44;;;;;;;6.57;3.45;;;15.60;99.90;;;;;;5051796;28;20197;-59
2023/07/02 03:48:12;;;;;;;7.53;3.53;;;15.60;99.90;;;;;;5052062;28;20236;-61
2023/07/02 03:50:41;;;;;;;4.43;3.00;;;15.60;99.90;;;;;;5051858;28;20731;-61
2023/07/02 03:53:09;;;;;;;7.13;3.47;;;15.60;99.90;;;;;;5050666;28;20304;-61
2023/07/02 03:55:38;;;;;;;7.75;3.88;;;15.60;99.90;;;;;;5051624;28;20206;-60
2023/07/02 03:58:06;;;;;;;6.07;3.40;;;15.60;99.90;;;;;;5051842;28;20279;-60
2023/07/02 04:00:34;;;;;;;5.00;3.92;;;15.60;99.90;;;;;;5051850;28;20253;-61
2023/07/02 04:03:03;;;;;;;6.07;3.38;;;15.70;99.90;;;;;;5051733;28;20225;-61
2023/07/02 04:05:31;;;;;;;6.88;3.40;;;15.70;99.90;;;;;;5049774;28;20228;-62
2023/07/02 04:08:00;;;;;;;12.43;3.78;;;15.70;99.90;;;;;;5042945;28;20518;-60
2023/07/02 04:10:28;;;;;;;7.78;3.88;;;15.70;99.90;;;;;;5051687;28;20198;-60
2023/07/02 04:12:56;;;;;;;8.68;4.30;;;15.70;99.90;;;;;;5051736;28;20253;-61
2023/07/02 04:15:24;;;;;;;5.60;3.90;;;15.70;99.90;;;;;;5051462;28;20241;-60
2023/07/02 04:17:52;;;;;;;7.28;3.80;;;15.70;99.90;;;;;;5051870;28;20229;-61
2023/07/02 04:20:20;;;;;;;4.93;3.78;;;15.80;99.90;;;;;;5050196;28;20284;-61
2023/07/02 04:22:47;;;;;;;8.05;4.70;;;15.80;99.90;;;;;;5051368;28;20355;-61
2023/07/02 04:25:17;;;;;;;6.28;3.83;;;15.80;99.90;;;;;;5051070;28;20209;-61
2023/07/02 04:28:05;;;;;;;6.47;3.78;;;15.80;99.90;;;;;;5051000;28;20582;-61
2023/07/02 04:30:32;;;;;;;7.00;3.97;;;15.80;99.90;;;;;;5050780;28;20237;-61
2023/07/02 04:33:00;;;;;;;7.03;4.80;;;15.80;99.90;;;;;;5051257;28;20230;-62
2023/07/02 04:35:28;;;;;;;10.95;3.97;;;15.80;99.90;;;;;;5049763;28;20202;-60
2023/07/02 04:37:57;;;;;;;10.75;4.85;;;15.80;99.90;;;;;;5050728;28;20271;-60
2023/07/02 04:40:26;;;;;;;6.03;4.80;;;15.80;99.90;;;;;;5051334;28;20209;-60
2023/07/02 04:42:57;;;;;;;8.65;4.60;;;15.80;99.90;;;;;;5050220;28;20283;-60
2023/07/02 04:45:25;;;;;;;5.75;3.90;;;15.80;99.90;;;;;;5050194;28;20201;-61
2023/07/02 04:47:53;;;;;;;7.68;3.95;;;15.80;99.90;;;;;;5050161;28;20743;-61
2023/07/02 04:50:21;;;;;;;9.05;4.53;;;15.90;99.90;;;;;;5050798;28;20213;-61
2023/07/02 04:52:49;;;;;;;7.60;4.80;;;15.90;99.90;;;;;;5050953;28;20225;-60
2023/07/02 04:55:17;;;;;;;9.20;5.20;;;15.90;99.90;;;;;;5050435;28;20238;-60
2023/07/02 04:57:46;;;;;;;10.65;5.05;;;16.00;99.90;;;;;;5050959;28;20222;-60
2023/07/02 05:00:15;;;;;;;12.25;5.82;;;16.00;99.90;;;;;;5049930;28;20296;-61
2023/07/02 05:02:43;;;;;;;9.88;5.07;;;16.10;99.90;;;;;;5048909;28;20271;-61
2023/07/02 05:05:11;;;;;;;9.82;4.70;;;16.20;99.90;;;;;;5049877;28;20271;-61
2023/07/02 05:07:39;;;;;;;7.65;4.63;;;16.20;99.90;;;;;;5050493;28;20198;-61
2023/07/02 05:10:07;;;;;;;12.48;4.68;;;16.30;99.90;;;;;;5050953;28;20618;-62
2023/07/02 05:12:35;;;;;;;8.10;5.10;;;16.40;99.90;;;;;;5050313;28;20582;-61
2023/07/02 05:15:05;;;;;;;11.52;5.82;;;16.40;99.90;;;;;;5050568;28;20234;-61
2023/07/02 05:17:35;;;;;;;8.35;4.78;;;16.40;99.90;;;;;;5047628;28;20656;-62
2023/07/02 05:20:04;;;;;;;12.85;6.10;;;16.50;99.90;;;;;;5050745;28;20244;-61
2023/07/02 05:22:32;;;;;;;10.25;5.53;;;16.50;99.90;;;;;;5050319;28;20230;-61
2023/07/02 05:25:00;;;;;;;12.10;5.53;;;16.40;99.90;;;;;;5050625;28;20237;-60
2023/07/02 05:27:28;;;;;;;7.80;5.40;;;16.50;99.90;;;;;;5050395;28;20680;-61
2023/07/02 05:29:56;;;;;;;10.57;5.72;;;16.50;99.90;;;;;;5048946;28;20284;-61
2023/07/02 05:32:25;;;;;;;12.98;6.25;;;16.50;99.90;;;;;;5050570;28;20248;-61
2023/07/02 05:34:53;;;;;;;12.52;6.53;;;16.60;99.90;;;;;;5050437;28;20202;-60
2023/07/02 05:37:21;;;;;;;12.55;5.95;;;16.60;99.90;;;;;;5050872;28;20304;-61
2023/07/02 05:39:49;;;;;;;14.40;7.10;;;16.60;99.90;;;;;;5050201;28;20206;-61
2023/07/02 05:42:17;;;;;;;12.48;6.78;;;16.60;99.90;;;;;;5049013;28;20230;-60
2023/07/02 05:44:45;;;;;;;12.20;6.22;;;16.70;99.90;;;;;;5049556;28;20238;-61
2023/07/02 05:47:12;;;;;;;10.68;6.35;;;16.70;99.90;;;;;;5050493;28;20202;-61
2023/07/02 05:49:43;;;;;;;9.57;6.57;;;16.80;99.90;;;;;;5051237;28;20243;-61
2023/07/02 05:52:11;;;;;;;12.63;6.95;;;16.80;99.90;;;;;;5053442;28;20317;-61
2023/07/02 05:54:40;;;;;;;14.68;6.88;;;16.80;99.90;;;;;;5052663;28;20202;-61
2023/07/02 05:57:08;;;;;;;11.60;6.78;;;16.80;99.90;;;;;;5051662;28;20245;-61
2023/07/02 05:59:36;;;;;;;10.70;6.85;;;16.90;99.90;;;;;;5049116;28;20288;-54
2023/07/02 06:02:04;;;;;;;12.32;6.72;;;16.90;99.90;;;;;;5052848;28;20312;-58
2023/07/02 06:04:32;;;;;;;11.55;7.38;;;16.90;99.90;;;;;;5053221;28;20233;-59
2023/07/02 06:07:01;;;;;;;14.57;7.57;;;16.90;99.90;;;;;;5053414;28;20747;-58
2023/07/02 06:09:29;;;;;;;11.15;7.07;;;16.90;99.90;;;;;;5053978;28;20206;-58
2023/07/02 06:11:57;;;;;;;12.65;7.45;;;16.90;99.90;;;;;;5052056;28;20344;-58
2023/07/02 06:14:26;;;;;;;11.70;6.85;;;17.00;99.90;;;;;;5055616;28;20236;-59
2023/07/02 06:16:57;;;;;;;12.88;7.57;;;17.10;99.90;;;;;;5051062;28;20201;-55
2023/07/02 06:19:25;;;;;;;15.13;7.65;;;17.30;99.90;;;;;;5053954;28;20248;-57
2023/07/02 06:21:53;;;;;;;21.85;7.80;;;17.40;99.90;;;;;;5052730;28;20229;-58
2023/07/02 06:24:22;;;;;;;17.83;9.23;;;17.50;99.90;;;;;;5052594;28;20557;-57
2023/07/02 06:26:50;;;;;;;18.20;9.93;;;17.60;99.90;;;;;;5055635;28;20673;-56
2023/07/02 06:29:18;;;;;;;19.15;9.95;;;17.60;99.90;;;;;;5054072;28;20236;-57
2023/07/02 06:31:46;;;;;;;18.42;10.90;;;17.50;99.90;;;;;;5054175;28;20283;-55
2023/07/02 06:34:14;;;;;;;19.20;10.05;;;17.50;99.90;;;;;;5051232;28;20245;-55
2023/07/02 06:36:42;;;;;;;17.40;9.73;;;17.60;99.90;;;;;;5050929;28;20206;-56
2023/07/02 06:39:10;;;;;;;19.48;10.27;;;17.60;99.90;;;;;;5051922;28;20217;-56
2023/07/02 06:41:39;;;;;;;18.50;10.25;;;17.60;99.90;;;;;;5050379;28;20257;-57
2023/07/02 06:44:07;;;;;;;18.15;10.45;;;17.70;99.90;;;;;;5052925;28;20244;-56
2023/07/02 06:46:35;;;;;;;21.27;11.00;;;17.70;99.90;;;;;;5051443;28;20209;-56
2023/07/02 06:49:03;;;;;;;20.45;10.70;;;17.80;99.90;;;;;;5051636;28;20665;-56
2023/07/02 06:51:30;;;;;;;20.23;11.18;;;17.80;99.90;;;;;;5050199;28;20293;-57
2023/07/02 06:53:58;;;;;;;17.33;10.13;;;17.90;99.90;;;;;;5051464;28;20676;-56
2023/07/02 06:56:26;;;;;;;19.50;10.30;;;18.00;99.90;;;;;;5053535;28;20233;-57
2023/07/02 06:58:56;;;;;;;18.02;10.80;;;18.10;99.90;;;;;;5052543;28;20221;-56
2023/07/02 07:01:23;;;;;;;20.27;11.57;;;18.10;99.90;;;;;;5050069;28;20198;-57
2023/07/02 07:03:52;;;;;;;20.98;11.23;;;18.20;99.90;;;;;;5052300;28;20292;-56
2023/07/02 07:06:20;;;;;;;17.55;10.20;;;18.20;99.90;;;;;;5051094;28;20297;-57
2023/07/02 07:08:48;;;;;;;21.02;11.77;;;18.30;99.90;;;;;;5048994;28;20620;-57
2023/07/02 07:11:16;;;;;;;18.48;10.98;;;18.30;99.90;;;;;;5053318;28;20267;-56
2023/07/02 07:13:44;;;;;;;18.08;10.82;;;18.30;99.90;;;;;;5050997;28;20251;-56
2023/07/02 07:16:13;;;;;;;22.58;11.30;;;18.30;99.90;;;;;;5051819;28;20638;-57
2023/07/02 07:18:41;;;;;;;21.52;11.77;;;18.40;99.90;;;;;;5050618;28;20770;-57
2023/07/02 07:21:09;;;;;;;19.95;11.38;;;18.40;99.90;;;;;;5051605;28;20665;-57
2023/07/02 07:23:37;;;;;;;25.30;12.55;;;18.50;99.90;;;;;;5067456;22;20677;-56
2023/07/02 07:26:05;;;;;;;18.85;11.50;;;18.60;99.90;;;;;;5070454;28;20197;-57
2023/07/02 07:28:33;;;;;;;19.23;11.80;;;18.70;99.90;;;;;;5069050;28;20278;-55
2023/07/02 07:31:01;;;;;;;19.92;11.60;;;18.70;99.90;;;;;;5068530;28;20284;-56
2023/07/02 07:33:30;;;;;;;27.35;12.15;;;18.80;99.90;;;;;;5065818;28;20311;-55
2023/07/02 07:35:58;;;;;;;18.75;11.68;;;19.00;99.90;;;;;;5062477;28;20224;-56
2023/07/02 07:38:26;;;;;;;23.83;11.93;;;19.10;99.90;;;;;;5065976;28;20662;-57
2023/07/02 07:40:53;;;;;;;27.73;11.73;;;19.20;99.90;;;;;;5070721;28;20272;-58
2023/07/02 07:43:21;;;;;;;24.35;11.02;;;19.30;99.90;;;;;;5063373;28;20708;-57
2023/07/02 07:45:49;;;;;;;16.73;11.30;;;19.30;99.90;;;;;;5062604;28;20917;-54
2023/07/02 07:48:17;;;;;;;20.25;11.23;;;19.40;99.90;;;;;;5065744;28;20197;-57
2023/07/02 07:50:46;;;;;;;19.33;11.10;;;19.70;99.90;;;;;;5070783;28;20200;-55
2023/07/02 07:53:15;;;;;;;21.55;11.38;;;19.90;99.90;;;;;;5070716;28;20228;-55
2023/07/02 07:55:43;;;;;;;16.63;11.55;;;20.00;99.90;;;;;;5070135;28;20287;-55
2023/07/02 07:58:11;;;;;;;18.65;11.65;;;20.10;99.90;;;;;;5068617;28;20307;-55
2023/07/02 08:00:39;;;;;;;19.77;11.10;;;20.10;99.90;;;;;;5070070;28;20281;-54
2023/07/02 08:03:07;;;;;;;18.73;10.57;;;20.20;99.90;;;;;;5070054;28;20260;-54
2023/07/02 08:05:35;;;;;;;23.95;11.23;;;20.20;99.90;;;;;;5070242;28;20204;-57
2023/07/02 08:08:04;;;;;;;16.58;10.23;;;20.20;99.90;;;;;;5067408;28;20251;-57
2023/07/02 08:10:32;;;;;;;17.70;10.88;;;20.30;99.90;;;;;;5064550;28;20653;-55
2023/07/02 08:13:00;;;;;;;18.48;10.60;;;20.30;99.90;;;;;;5063589;28;20263;-57
2023/07/02 08:15:28;;;;;;;17.25;10.95;;;20.40;99.90;;;;;;5059092;28;20632;-55
2023/07/02 08:17:58;;;;;;;19.23;10.77;;;20.50;99.90;;;;;;5069920;28;20292;-56
2023/07/02 08:20:26;;;;;;;19.85;10.80;;;20.50;99.90;;;;;;5069945;28;20231;-56
2023/07/02 08:22:54;;;;;;;21.05;12.00;;;20.60;99.90;;;;;;5067806;28;20319;-55
2023/07/02 08:25:26;;;;;;;21.98;11.48;;;20.50;99.90;;;;;;5060369;28;20242;-56
2023/07/02 08:27:54;;;;;;;21.73;11.27;;;20.40;99.90;;;;;;5070255;28;20240;-56
2023/07/02 08:30:22;;;;;;;15.95;10.57;;;20.30;99.90;;;;;;5069883;28;20235;-58
2023/07/02 08:32:50;;;;;;;16.52;10.98;;;20.30;99.90;;;;;;5069721;28;20224;-57
2023/07/02 08:35:18;;;;;;;19.60;10.57;;;20.40;99.90;;;;;;5069323;28;20201;-57
2023/07/02 08:37:46;;;;;;;15.77;9.90;;;20.50;99.90;;;;;;5067819;28;20213;-56
2023/07/02 08:40:17;;;;;;;20.00;10.35;;;20.60;99.90;;;;;;5069608;28;20243;-56
2023/07/02 08:42:47;;;;;;;15.65;10.40;;;20.80;99.90;;;;;;5070613;28;20264;-57
2023/07/02 08:45:16;;;;;;;19.05;11.77;;;21.00;99.90;;;;;;5066550;28;20205;-57
2023/07/02 08:47:44;;;;;;;15.98;10.40;;;21.00;99.90;;;;;;5060497;28;20695;-57
2023/07/02 08:50:12;;;;;;;16.17;9.80;;;21.10;99.90;;;;;;5069640;28;20664;-56
2023/07/02 08:52:40;;;;;;;14.15;9.40;;;21.30;99.90;;;;;;5063550;28;20259;-58
2023/07/02 08:55:09;;;;;;;14.15;9.48;;;21.40;99.90;;;;;;5063815;28;20247;-57
2023/07/02 08:57:37;;;;;;;12.75;8.32;;;21.60;99.90;;;;;;5066653;28;20704;-57
2023/07/02 09:00:11;;;;;;;12.30;7.72;;;21.80;99.90;;;;;;5069789;28;20224;-57
2023/07/02 09:02:39;;;;;;;11.68;7.75;;;21.80;99.90;;;;;;5066568;28;20251;-56
2023/07/02 09:05:08;;;;;;;13.07;8.13;;;21.70;99.90;;;;;;5065567;28;20691;-57
2023/07/02 09:07:44;;;;;;;16.80;8.85;;;21.60;99.90;;;;;;5052520;28;20626;-58
2023/07/02 09:10:13;;;;;;;14.15;8.60;;;21.50;99.90;;;;;;5061060;28;20287;-56
2023/07/02 09:12:40;;;;;;;17.95;9.68;;;21.50;99.90;;;;;;5067169;28;20519;-57
2023/07/02 09:15:10;;;;;;;18.00;10.02;;;21.60;99.90;;;;;;5069287;28;20236;-57
2023/07/02 09:17:38;;;;;;;15.13;10.27;;;21.70;99.90;;;;;;5054196;28;20258;-60
2023/07/02 09:20:08;;;;;;;18.35;11.10;;;21.70;99.90;;;;;;5065766;28;20664;-58
2023/07/02 09:22:35;;;;;;;14.57;9.15;;;21.90;99.90;;;;;;5068111;28;20240;-60
2023/07/02 09:25:04;;;;;;;17.98;10.27;;;22.00;99.90;;;;;;5070872;28;20250;-59
2023/07/02 09:27:36;;;;;;;16.58;9.93;;;22.10;99.90;;;;;;5072386;28;20201;-59
2023/07/02 09:30:11;;;;;;;19.58;10.90;;;22.20;99.90;;;;;;5073081;28;20201;-58
2023/07/02 09:32:39;;;;;;;17.60;10.82;;;22.30;99.90;;;;;;5073546;28;20316;-59
2023/07/02 09:35:07;;;;;;;21.10;11.73;;;22.20;99.90;;;;;;5072944;28;20675;-59
2023/07/02 09:37:35;;;;;;;18.63;9.68;;;22.10;99.90;;;;;;5069774;28;20295;-60
2023/07/02 09:40:05;;;;;;;15.18;9.45;;;22.10;99.90;;;;;;5072859;28;20770;-59
2023/07/02 09:42:34;;;;;;;15.02;9.45;;;22.40;99.90;;;;;;5072627;28;20220;-59
2023/07/02 09:45:02;;;;;;;14.63;9.65;;;22.60;99.90;;;;;;5072806;28;20320;-58
2023/07/02 09:47:32;;;;;;;16.08;9.90;;;22.70;99.90;;;;;;5073223;28;20200;-57
2023/07/02 09:50:03;;;;;;;13.45;9.52;;;22.90;99.90;;;;;;5058805;28;20209;-58
2023/07/02 09:52:31;;;;;;;17.67;10.07;;;22.90;99.90;;;;;;5058287;28;20751;-58
2023/07/02 09:54:58;;;;;;;16.45;8.75;;;22.70;99.90;;;;;;5067575;28;20197;-58
2023/07/02 09:57:29;;;;;;;19.60;9.90;;;22.50;99.90;;;;;;5072092;28;20631;-58
2023/07/02 09:59:57;;;;;;;15.20;9.77;;;22.60;99.90;;;;;;5072186;28;20224;-58
2023/07/02 10:02:25;;;;;;;16.52;11.35;;;22.60;99.90;;;;;;5071736;28;20294;-59
2023/07/02 10:04:56;;;;;;;19.25;10.23;;;22.50;99.90;;;;;;5069679;28;20204;-58
2023/07/02 10:07:28;;;;;;;18.15;11.20;;;22.30;99.90;;;;;;5072429;28;20571;-58
2023/07/02 10:09:56;;;;;;;20.90;10.65;;;22.20;99.90;;;;;;5074665;28;20242;-58
2023/07/02 10:12:24;;;;;;;21.08;11.65;;;22.10;99.90;;;;;;5079588;28;20274;-60
2023/07/02 10:14:53;;;;;;;22.20;12.52;;;22.00;99.90;;;;;;5065457;28;20258;-59
2023/07/02 10:17:25;;;;;;;21.83;11.43;;;21.90;99.90;;;;;;5065262;28;20204;-58
2023/07/02 10:19:56;;;;;;;15.75;10.52;;;21.90;99.90;;;;;;5069984;28;20225;-59
2023/07/02 10:22:24;;;;;;;17.42;10.85;;;21.80;99.90;;;;;;5068424;28;20268;-59
2023/07/02 10:24:54;;;;;;;19.67;11.15;;;21.80;99.90;;;;;;5071874;28;20201;-59
2023/07/02 10:27:22;;;;;;;16.27;11.05;;;21.90;99.90;;;;;;5067241;28;20197;-59
2023/07/02 10:29:50;;;;;;;15.68;11.07;;;21.90;99.90;;;;;;5070370;28;20236;-57
2023/07/02 10:32:27;;;;;;;19.50;11.25;;;22.20;99.90;;;;;;5071423;28;20231;-59
2023/07/02 10:34:58;;;;;;;21.05;11.45;;;22.70;99.90;;;;;;5072773;28;20214;-60
2023/07/02 10:37:26;;;;;;;22.75;11.27;;;23.30;99.90;;;;;;5068935;28;20287;-59
2023/07/02 10:39:54;;;;;;;17.77;11.38;;;23.60;99.90;;;;;;5068673;28;20331;-59
2023/07/02 10:42:22;;;;;;;16.77;10.82;;;23.60;99.90;;;;;;5067863;28;20252;-58
2023/07/02 10:44:51;;;;;;;18.67;11.18;;;23.60;99.90;;;;;;5071190;28;20680;-58
2023/07/02 10:47:19;;;;;;;18.48;11.85;;;23.80;99.90;;;;;;5071530;28;20258;-59
2023/07/02 10:49:47;;;;;;;16.00;11.07;;;24.10;99.90;;;;;;5071954;28;20196;-60
2023/07/02 10:52:16;;;;;;;17.30;11.25;;;24.50;99.90;;;;;;5071408;28;20248;-58
2023/07/02 10:54:45;;;;;;;21.17;12.75;;;24.30;99.90;;;;;;5067025;28;20228;-60
2023/07/02 10:57:15;;;;;;;20.25;11.13;;;24.70;99.90;;;;;;5068980;28;20228;-59
2023/07/02 10:59:42;;;;;;;20.40;10.75;;;25.30;99.90;;;;;;5065370;28;20258;-59
2023/07/02 11:02:10;;;;;;;18.40;11.77;;;25.90;99.90;;;;;;5067620;28;20286;-59
2023/07/02 11:04:38;;;;;;;23.50;11.60;;;25.80;99.90;;;;;;5067803;28;20220;-59
2023/07/02 11:07:06;;;;;;;19.85;12.18;;;25.40;99.90;;;;;;5069660;28;20656;-59
2023/07/02 11:09:36;;;;;;;18.27;12.07;;;24.90;99.90;;;;;;5052524;28;20196;-59
2023/07/02 11:12:04;;;;;;;19.90;12.20;;;24.50;99.90;;;;;;5071312;28;20212;-59
2023/07/02 11:14:32;;;;;;;22.73;13.82;;;24.30;99.90;;;;;;5072687;28;20204;-61
2023/07/02 11:17:02;;;;;;;24.35;12.63;;;24.00;99.90;;;;;;5071883;28;20200;-61
2023/07/02 11:19:30;;;;;;;18.92;11.85;;;23.90;99.90;;;;;;5071873;28;20598;-60
2023/07/02 11:21:59;;;;;;;16.02;11.50;;;23.80;99.90;;;;;;5071928;28;20302;-60
2023/07/02 11:24:31;;;;;;;19.98;12.65;;;24.00;99.90;;;;;;5072017;28;20281;-60
2023/07/02 11:27:00;;;;;;;23.42;13.02;;;24.50;99.90;;;;;;5071194;28;20200;-60
2023/07/02 11:29:29;;;;;;;20.52;11.95;;;24.90;99.90;;;;;;5072033;28;20200;-60
2023/07/02 11:32:06;;;;;;;20.92;13.02;;;25.00;99.90;;;;;;5071462;28;20287;-59
2023/07/02 11:34:33;;;;;;;18.10;11.30;;;25.00;99.90;;;;;;5071571;28;20270;-59
2023/07/02 11:37:01;;;;;;;17.63;11.93;;;24.80;99.90;;;;;;5071359;28;20205;-60
2023/07/02 11:39:29;;;;;;;18.33;12.82;;;24.70;99.90;;;;;;5071157;28;20208;-60
2023/07/02 11:41:57;;;;;;;21.27;12.45;;;24.50;99.90;;;;;;5071322;28;20289;-59
2023/07/02 11:44:27;;;;;;;20.73;13.80;;;24.40;99.90;;;;;;5071254;28;20204;-60
2023/07/02 11:46:56;;;;;;;22.27;13.40;;;24.50;99.90;;;;;;5071157;28;20200;-60
2023/07/02 11:49:25;;;;;;;20.85;13.20;;;24.30;99.90;;;;;;5071437;28;20296;-60
2023/07/02 11:51:53;;;;;;;21.52;12.77;;;24.40;99.90;;;;;;5070657;28;20278;-60
2023/07/02 11:54:20;;;;;;;18.77;12.57;;;24.30;99.90;;;;;;5070854;28;20731;-60
2023/07/02 11:56:48;;;;;;;20.73;12.60;;;24.30;99.90;;;;;;5070822;28;20227;-61
2023/07/02 11:59:16;;;;;;;20.52;13.65;;;24.10;99.90;;;;;;5070993;28;20228;-60
2023/07/02 12:01:45;;;;;;;24.05;13.95;;;24.00;99.90;;;;;;5070454;28;20758;-60
2023/07/02 12:04:14;;;;;;;22.42;13.55;;;24.00;99.90;;;;;;5070479;28;20651;-61
2023/07/02 12:06:42;;;;;;;23.52;14.55;;;24.10;99.90;;;;;;5070428;28;20204;-60
2023/07/02 12:09:10;;;;;;;23.15;13.10;;;24.30;99.90;;;;;;5070426;28;20720;-60
2023/07/02 12:11:38;;;;;;;24.85;13.60;;;24.30;99.90;;;;;;5070582;28;20608;-60
2023/07/02 12:14:06;;;;;;;23.77;13.13;;;24.10;99.90;;;;;;5070400;28;20201;-60
2023/07/02 12:16:34;;;;;;;23.95;13.82;;;24.20;99.90;;;;;;5070042;28;20205;-60
2023/07/02 12:19:04;;;;;;;23.35;14.13;;;24.40;99.90;;;;;;5070257;28;20208;-60
2023/07/02 12:21:33;;;;;;;23.98;13.45;;;24.30;99.90;;;;;;5070181;28;20587;-60
2023/07/02 12:24:00;;;;;;;24.63;14.05;;;24.20;99.90;;;;;;5070038;28;20754;-60
2023/07/02 12:26:29;;;;;;;24.20;13.93;;;24.50;99.90;;;;;;5069988;28;20269;-61
2023/07/02 12:28:57;;;;;;;23.88;15.02;;;24.70;99.90;;;;;;5070201;28;20201;-60
2023/07/02 12:31:25;;;;;;;23.23;14.02;;;24.70;99.90;;;;;;5069882;28;20236;-60
2023/07/02 12:33:53;;;;;;;28.25;14.52;;;24.50;99.90;;;;;;5070204;28;20220;-61
2023/07/02 12:36:22;;;;;;;25.30;14.85;;;24.40;99.90;;;;;;5070007;28;20269;-60
2023/07/02 12:38:50;;;;;;;24.08;14.15;;;24.30;99.90;;;;;;5070091;28;20243;-59
2023/07/02 12:41:18;;;;;;;26.15;14.20;;;24.30;99.90;;;;;;5069864;28;20727;-60